createdAt,value
2023-06-19T00:00:22.573Z,90.43
2023-06-19T00:03:25.368Z,90.52
2023-06-19T00:06:28.116Z,91.02
2023-06-19T00:09:30.593Z,90.42
2023-06-19T00:12:35.378Z,90.00
2023-06-19T00:15:40.055Z,90.06
2023-06-19T00:18:43.123Z,90.80
2023-06-19T00:21:45.691Z,90.40
2023-06-19T00:24:48.269Z,89.58
2023-06-19T00:27:50.762Z,88.81
2023-06-19T00:30:53.247Z,89.38
2023-06-19T00:33:58.109Z,89.72
2023-06-19T00:37:01.541Z,90.04
2023-06-19T00:40:04.715Z,90.58
2023-06-19T00:43:08.633Z,90.73
2023-06-19T00:46:12.280Z,91.22
2023-06-19T00:49:17.058Z,90.92
2023-06-19T00:52:19.622Z,91.28
2023-06-19T00:55:29.931Z,90.84
2023-06-19T00:58:36.428Z,92.10
2023-06-19T01:01:41.981Z,92.43
2023-06-19T01:04:44.543Z,91.52
2023-06-19T01:07:55.880Z,92.50
2023-06-19T01:11:14.856Z,91.36
2023-06-19T01:14:27.954Z,93.66
2023-06-19T01:17:33.394Z,94.60
2023-06-19T01:20:38.663Z,95.00
2023-06-19T01:23:44.247Z,95.60
2023-06-19T01:26:51.366Z,95.78
2023-06-19T01:29:56.610Z,95.09
2023-06-19T01:33:12.306Z,93.75
2023-06-19T01:36:15.890Z,94.09
2023-06-19T01:39:20.179Z,94.95
2023-06-19T01:42:22.769Z,94.89
2023-06-19T01:45:25.481Z,95.04
2023-06-19T01:48:28.588Z,95.45
2023-06-19T01:51:31.051Z,94.57
2023-06-19T01:54:38.154Z,95.09
2023-06-19T01:57:40.715Z,96.70
2023-06-19T02:00:45.793Z,96.01
2023-06-19T02:03:50.804Z,94.25
2023-06-19T02:06:55.499Z,95.23
2023-06-19T02:10:02.644Z,94.58
2023-06-19T02:13:11.328Z,95.36
2023-06-19T02:16:13.864Z,95.54
2023-06-19T02:19:18.649Z,96.60
2023-06-19T02:22:23.218Z,96.04
2023-06-19T02:25:25.672Z,96.23
2023-06-19T02:28:28.297Z,97.39
2023-06-19T02:31:32.938Z,94.98
2023-06-19T02:34:35.537Z,96.20
2023-06-19T02:37:38.238Z,97.00
2023-06-19T02:40:40.738Z,96.88
2023-06-19T02:43:45.644Z,95.16
2023-06-19T02:46:50.483Z,94.73
2023-06-19T02:49:52.960Z,94.99
2023-06-19T02:52:55.498Z,95.29
2023-06-19T02:56:00.335Z,96.07
2023-06-19T02:59:07.575Z,96.32
2023-06-19T03:02:10.084Z,96.22
2023-06-19T03:05:17.170Z,96.09
2023-06-19T03:08:21.885Z,95.67
2023-06-19T03:11:24.381Z,95.51
2023-06-19T03:14:27.064Z,94.60
2023-06-19T03:17:29.609Z,95.44
2023-06-19T03:20:34.503Z,95.70
2023-06-19T03:23:39.610Z,95.44
2023-06-19T03:26:42.105Z,94.60
2023-06-19T03:29:46.909Z,95.11
2023-06-19T03:32:54.881Z,95.74
2023-06-19T03:36:26.492Z,95.47
2023-06-19T03:39:30.273Z,95.67
2023-06-19T03:42:41.917Z,95.34
2023-06-19T03:45:44.714Z,95.60
2023-06-19T03:48:51.946Z,94.53
2023-06-19T03:51:55.644Z,95.58
2023-06-19T03:54:58.234Z,96.20
2023-06-19T03:58:00.805Z,95.92
2023-06-19T04:01:04.293Z,95.99
2023-06-19T04:04:06.847Z,96.46
2023-06-19T04:07:09.376Z,95.76
2023-06-19T04:10:12.874Z,95.99
2023-06-19T04:13:17.852Z,96.12
2023-06-19T04:16:21.171Z,95.75
2023-06-19T04:19:24.272Z,95.66
2023-06-19T04:22:26.767Z,95.41
2023-06-19T04:25:29.301Z,95.09
2023-06-19T04:28:32.671Z,94.58
2023-06-19T04:31:42.940Z,95.13
2023-06-19T04:34:47.228Z,91.49
2023-06-19T04:37:50.111Z,92.03
2023-06-19T04:40:53.137Z,90.49
2023-06-19T04:43:55.646Z,90.82
2023-06-19T04:47:02.301Z,90.12
2023-06-19T04:50:07.611Z,89.44
2023-06-19T04:53:10.154Z,88.78
2023-06-19T04:56:12.674Z,88.43
2023-06-19T04:59:19.319Z,88.48
2023-06-19T05:02:21.922Z,87.29
2023-06-19T05:05:24.729Z,86.14
2023-06-19T05:08:27.450Z,86.06
2023-06-19T05:11:30.006Z,85.45
2023-06-19T05:14:32.458Z,84.27
2023-06-19T05:17:35.001Z,84.38
2023-06-19T05:20:39.760Z,84.89
2023-06-19T05:23:42.215Z,83.99
2023-06-19T05:26:49.382Z,85.50
2023-06-19T05:29:53.942Z,84.41
2023-06-19T05:32:58.694Z,85.95
2023-06-19T05:36:02.310Z,83.47
2023-06-19T05:39:05.373Z,83.19
2023-06-19T05:42:08.518Z,83.03
2023-06-19T05:45:14.376Z,80.22
2023-06-19T05:48:17.022Z,78.40
2023-06-19T05:51:24.139Z,78.52
2023-06-19T05:54:28.896Z,79.04
2023-06-19T05:57:34.767Z,75.63
2023-06-19T06:00:37.322Z,77.67
2023-06-19T06:03:40.436Z,75.05
2023-06-19T06:06:43.026Z,73.39
2023-06-19T06:09:45.555Z,74.17
2023-06-19T06:12:51.179Z,73.54
2023-06-19T06:15:53.699Z,71.22
2023-06-19T06:18:58.280Z,70.04
2023-06-19T06:22:03.179Z,68.57
2023-06-19T06:25:06.084Z,68.53
2023-06-19T06:28:08.714Z,66.24
2023-06-19T06:31:11.199Z,61.20
2023-06-19T06:34:14.460Z,58.75
2023-06-19T06:37:23.639Z,55.22
2023-06-19T06:40:26.464Z,53.72
2023-06-19T06:43:29.226Z,51.08
2023-06-19T06:46:34.005Z,47.56
2023-06-19T06:49:37.598Z,48.60
2023-06-19T06:52:40.092Z,44.50
2023-06-19T06:55:45.714Z,45.99
2023-06-19T06:58:48.267Z,44.24
2023-06-19T07:01:50.932Z,42.27
2023-06-19T07:04:53.519Z,40.33
2023-06-19T07:07:55.985Z,39.21
2023-06-19T07:10:58.477Z,39.41
2023-06-19T07:14:00.930Z,38.81
2023-06-19T07:17:03.653Z,38.33
2023-06-19T07:20:09.150Z,39.65
2023-06-19T07:23:12.137Z,39.71
2023-06-19T07:26:15.208Z,42.05
2023-06-19T07:29:17.781Z,38.71
2023-06-19T07:32:20.839Z,38.73
2023-06-19T07:35:23.354Z,38.62
2023-06-19T07:38:28.111Z,35.40
2023-06-19T07:41:32.791Z,35.28
2023-06-19T07:44:35.263Z,35.83
2023-06-19T07:47:40.018Z,34.16
2023-06-19T07:50:42.646Z,33.32
2023-06-19T07:53:45.156Z,33.58
2023-06-19T07:56:47.662Z,33.63
2023-06-19T07:59:51.351Z,32.33
2023-06-19T08:02:54.062Z,33.67
2023-06-19T08:05:58.732Z,35.01
2023-06-19T08:09:01.259Z,35.24
2023-06-19T08:12:04.114Z,34.92
2023-06-19T08:15:07.494Z,31.56
2023-06-19T08:18:10.020Z,34.27
2023-06-19T08:21:13.713Z,31.44
2023-06-19T08:24:16.460Z,31.09
2023-06-19T08:27:18.948Z,31.75
2023-06-19T08:30:23.970Z,33.14
2023-06-19T08:33:28.861Z,31.46
2023-06-19T08:36:34.266Z,30.44
2023-06-19T08:39:40.539Z,31.43
2023-06-19T08:42:44.739Z,29.49
2023-06-19T08:46:19.230Z,30.39
2023-06-19T08:49:25.066Z,28.64
2023-06-19T08:52:27.681Z,30.64
2023-06-19T08:55:30.194Z,30.75
2023-06-19T08:58:33.859Z,29.28
2023-06-19T09:01:36.351Z,30.40
2023-06-19T09:04:38.823Z,27.99
2023-06-19T09:07:41.644Z,27.93
2023-06-19T09:10:54.925Z,27.12
2023-06-19T09:13:58.828Z,26.13
2023-06-19T09:17:03.108Z,26.51
2023-06-19T09:20:10.077Z,28.18
2023-06-19T09:23:13.416Z,29.10
2023-06-19T09:26:20.233Z,26.74
2023-06-19T09:29:27.322Z,25.47
2023-06-19T09:32:30.016Z,28.91
2023-06-19T09:35:34.817Z,24.88
2023-06-19T09:38:40.137Z,26.31
2023-06-19T09:41:52.142Z,26.69
2023-06-19T09:45:00.060Z,24.67
2023-06-19T09:48:02.676Z,25.90
2023-06-19T09:51:32.082Z,24.49
2023-06-19T09:54:36.020Z,25.31
2023-06-19T09:57:39.687Z,24.78
2023-06-19T10:00:42.225Z,24.84
2023-06-19T10:03:44.788Z,24.07
2023-06-19T10:06:50.742Z,24.16
2023-06-19T10:10:01.652Z,23.49
2023-06-19T10:13:15.145Z,24.98
2023-06-19T10:16:22.989Z,25.25
2023-06-19T10:19:28.685Z,24.35
2023-06-19T10:22:33.430Z,25.18
2023-06-19T10:25:39.416Z,22.24
2023-06-19T10:28:48.696Z,24.08
2023-06-19T10:31:51.478Z,24.43
2023-06-19T10:34:54.008Z,24.43
2023-06-19T10:37:56.623Z,24.22
2023-06-19T10:41:01.636Z,24.25
2023-06-19T10:44:06.394Z,25.15
2023-06-19T10:47:08.996Z,25.20
2023-06-19T10:50:15.341Z,30.94
2023-06-19T10:53:28.431Z,29.87
2023-06-19T10:56:31.077Z,31.97
2023-06-19T10:59:36.419Z,30.96
2023-06-19T11:02:40.960Z,32.89
2023-06-19T11:05:47.759Z,30.44
2023-06-19T11:08:53.889Z,30.54
2023-06-19T11:11:59.781Z,30.98
2023-06-19T11:15:06.559Z,28.74
2023-06-19T11:18:11.589Z,29.21
2023-06-19T11:21:16.302Z,28.36
2023-06-19T11:24:20.388Z,29.99
2023-06-19T11:27:29.728Z,31.78
2023-06-19T11:30:35.481Z,35.43
2023-06-19T11:33:40.505Z,37.34
2023-06-19T11:36:43.691Z,37.21
2023-06-19T11:39:50.861Z,37.82
2023-06-19T11:42:56.823Z,40.07
2023-06-19T11:46:11.687Z,41.99
2023-06-19T11:49:18.033Z,40.49
2023-06-19T11:52:25.438Z,42.88
2023-06-19T11:55:30.267Z,41.04
2023-06-19T11:58:32.751Z,41.56
2023-06-19T12:01:38.332Z,39.21
2023-06-19T12:04:42.974Z,39.78
2023-06-19T12:07:48.727Z,39.37
2023-06-19T12:10:51.219Z,37.06
2023-06-19T12:13:58.860Z,35.31
2023-06-19T12:17:01.475Z,33.12
2023-06-19T12:20:07.124Z,29.08
2023-06-19T12:23:09.621Z,29.44
2023-06-19T12:26:12.132Z,31.49
2023-06-19T12:29:16.838Z,32.99
2023-06-19T12:32:19.620Z,30.65
2023-06-19T12:35:25.105Z,29.60
2023-06-19T12:38:27.866Z,32.34
2023-06-19T12:41:30.425Z,31.15
2023-06-19T12:44:32.958Z,31.33
2023-06-19T12:47:37.907Z,28.42
2023-06-19T12:50:40.436Z,29.95
2023-06-19T12:53:42.904Z,29.61
2023-06-19T12:56:46.253Z,32.05
2023-06-19T12:59:48.766Z,31.41
2023-06-19T13:02:51.456Z,28.21
2023-06-19T13:05:56.177Z,28.17
2023-06-19T13:08:58.966Z,30.53
2023-06-19T13:12:01.434Z,27.84
2023-06-19T13:15:04.235Z,30.06
2023-06-19T13:18:06.884Z,31.30
2023-06-19T13:21:09.400Z,31.52
2023-06-19T13:24:12.352Z,32.57
2023-06-19T13:27:14.979Z,30.59
2023-06-19T13:30:19.548Z,28.52
2023-06-19T13:33:22.099Z,29.03
2023-06-19T13:36:25.106Z,30.49
2023-06-19T13:39:27.627Z,29.87
2023-06-19T13:42:32.959Z,29.91
2023-06-19T13:45:35.888Z,31.32
2023-06-19T13:48:38.536Z,30.41
2023-06-19T13:51:41.020Z,32.17
2023-06-19T13:54:43.609Z,30.98
2023-06-19T13:57:46.406Z,30.12
2023-06-19T14:00:49.174Z,31.00
2023-06-19T14:03:51.664Z,30.21
2023-06-19T14:06:56.022Z,31.51
2023-06-19T14:09:58.675Z,30.79
2023-06-19T14:13:01.146Z,30.70
2023-06-19T14:16:03.987Z,28.18
2023-06-19T14:19:08.673Z,30.19
2023-06-19T14:22:11.214Z,30.48
2023-06-19T14:25:14.082Z,30.12
2023-06-19T14:28:19.042Z,30.52
2023-06-19T14:31:21.541Z,31.33
2023-06-19T14:34:24.077Z,33.43
2023-06-19T14:37:27.165Z,32.87
2023-06-19T14:40:29.680Z,33.05
2023-06-19T14:43:34.182Z,33.18
2023-06-19T14:46:40.823Z,34.93
2023-06-19T14:49:45.741Z,36.45
2023-06-19T14:52:50.804Z,34.37
2023-06-19T14:55:53.379Z,35.84
2023-06-19T14:58:56.189Z,33.54
2023-06-19T15:02:00.987Z,32.67
2023-06-19T15:05:07.011Z,34.81
2023-06-19T15:08:11.351Z,35.60
2023-06-19T15:11:13.886Z,35.51
2023-06-19T15:14:18.350Z,35.98
2023-06-19T15:17:23.058Z,34.94
2023-06-19T15:20:25.681Z,35.89
2023-06-19T15:23:28.408Z,35.13
2023-06-19T15:26:31.164Z,35.25
2023-06-19T15:29:33.660Z,35.80
2023-06-19T15:32:41.009Z,35.66
2023-06-19T15:35:46.251Z,34.81
2023-06-19T15:38:49.241Z,34.27
2023-06-19T15:41:51.792Z,34.25
2023-06-19T15:44:54.283Z,36.92
2023-06-19T15:47:59.198Z,35.25
2023-06-19T15:51:04.087Z,33.90
2023-06-19T15:54:08.828Z,34.34
2023-06-19T15:57:13.542Z,34.96
2023-06-19T16:00:16.471Z,37.40
2023-06-19T16:03:21.764Z,36.43
2023-06-19T16:06:24.401Z,35.75
2023-06-19T16:09:27.799Z,36.29
2023-06-19T16:12:32.659Z,36.29
2023-06-19T16:15:36.217Z,37.57
2023-06-19T16:18:38.715Z,38.77
2023-06-19T16:21:43.426Z,39.59
2023-06-19T16:24:48.020Z,37.06
2023-06-19T16:27:53.293Z,38.49
2023-06-19T16:30:55.769Z,39.13
2023-06-19T16:33:58.529Z,40.00
2023-06-19T16:37:01.025Z,38.56
2023-06-19T16:40:06.402Z,39.26
2023-06-19T16:43:11.151Z,40.66
2023-06-19T16:46:13.662Z,42.53
2023-06-19T16:49:18.122Z,42.90
2023-06-19T16:52:21.130Z,42.91
2023-06-19T16:55:25.673Z,42.98
2023-06-19T16:58:30.349Z,44.32
2023-06-19T17:01:33.185Z,44.08
2023-06-19T17:04:35.751Z,43.81
2023-06-19T17:07:40.604Z,44.99
2023-06-19T17:10:43.194Z,46.73
2023-06-19T17:13:48.154Z,46.51
2023-06-19T17:16:52.178Z,46.51
2023-06-19T17:19:56.894Z,47.48
2023-06-19T17:22:59.555Z,48.50
2023-06-19T17:26:02.358Z,49.14
2023-06-19T17:29:05.653Z,50.30
2023-06-19T17:32:11.342Z,50.80
2023-06-19T17:35:16.621Z,50.23
2023-06-19T17:38:19.089Z,50.43
2023-06-19T17:41:21.645Z,51.86
2023-06-19T17:44:31.456Z,53.14
2023-06-19T17:47:33.940Z,54.13
2023-06-19T17:50:36.573Z,55.45
2023-06-19T17:53:42.210Z,55.59
2023-06-19T17:56:45.733Z,56.02
2023-06-19T17:59:48.924Z,56.62
2023-06-19T18:02:51.418Z,56.93
2023-06-19T18:05:54.000Z,57.56
2023-06-19T18:08:56.454Z,58.11
2023-06-19T18:11:58.980Z,58.72
2023-06-19T18:15:01.448Z,59.15
2023-06-19T18:18:07.294Z,59.78
2023-06-19T18:21:09.813Z,59.85
2023-06-19T18:24:12.393Z,59.46
2023-06-19T18:27:15.523Z,59.38
2023-06-19T18:30:20.328Z,59.35
2023-06-19T18:33:25.107Z,58.80
2023-06-19T18:36:28.093Z,58.35
2023-06-19T18:39:30.815Z,58.62
2023-06-19T18:42:35.556Z,58.68
2023-06-19T18:45:38.194Z,58.47
2023-06-19T18:48:42.792Z,58.12
2023-06-19T18:51:45.275Z,58.07
2023-06-19T18:54:48.876Z,58.55
2023-06-19T18:57:53.582Z,58.91
2023-06-19T19:00:56.611Z,59.58
2023-06-19T19:03:59.129Z,59.84
2023-06-19T19:07:03.729Z,59.57
2023-06-19T19:10:10.885Z,58.97
2023-06-19T19:13:15.652Z,58.30
2023-06-19T19:16:20.769Z,58.45
2023-06-19T19:19:28.430Z,58.30
2023-06-19T19:22:33.844Z,58.32
2023-06-19T19:25:39.998Z,57.27
2023-06-19T19:28:42.525Z,56.95
2023-06-19T19:31:45.098Z,56.81
2023-06-19T19:34:49.195Z,57.11
2023-06-19T19:37:53.957Z,57.32
2023-06-19T19:40:58.577Z,57.60
2023-06-19T19:44:01.090Z,58.11
2023-06-19T19:47:03.798Z,58.37
2023-06-19T19:50:11.646Z,58.24
2023-06-19T19:53:16.415Z,56.84
2023-06-19T19:56:19.734Z,57.51
2023-06-19T19:59:22.896Z,56.91
2023-06-19T20:02:25.519Z,58.84
2023-06-19T20:05:28.105Z,60.35
2023-06-19T20:08:30.644Z,62.50
2023-06-19T20:11:34.030Z,62.23
2023-06-19T20:14:36.518Z,62.64
2023-06-19T20:17:41.235Z,61.55
2023-06-19T20:20:43.788Z,62.61
2023-06-19T20:23:46.314Z,63.06
2023-06-19T20:26:48.814Z,64.22
2023-06-19T20:29:51.277Z,63.23
2023-06-19T20:32:56.446Z,63.28
2023-06-19T20:36:02.060Z,65.52
2023-06-19T20:39:06.704Z,65.94
2023-06-19T20:42:09.249Z,65.86
2023-06-19T20:45:11.783Z,62.85
2023-06-19T20:48:14.514Z,60.02
2023-06-19T20:51:16.961Z,59.02
2023-06-19T20:54:21.737Z,59.46
2023-06-19T20:57:24.312Z,60.27
2023-06-19T21:00:29.053Z,60.70
2023-06-19T21:03:32.417Z,62.86
2023-06-19T21:06:34.980Z,64.23
2023-06-19T21:09:37.526Z,64.73
2023-06-19T21:12:40.268Z,65.57
2023-06-19T21:15:42.745Z,65.41
2023-06-19T21:18:45.227Z,66.32
2023-06-19T21:21:47.741Z,65.68
2023-06-19T21:24:50.238Z,65.69
2023-06-19T21:27:52.796Z,67.22
2023-06-19T21:30:57.418Z,66.44
2023-06-19T21:34:00.011Z,68.01
2023-06-19T21:37:02.560Z,69.20
2023-06-19T21:40:10.845Z,68.91
2023-06-19T21:43:13.407Z,67.85
2023-06-19T21:46:16.026Z,68.82
2023-06-19T21:49:20.653Z,68.77
2023-06-19T21:52:26.670Z,70.46
2023-06-19T21:55:29.167Z,71.46
2023-06-19T21:58:33.994Z,71.92
2023-06-19T22:01:37.290Z,72.42
2023-06-19T22:04:39.751Z,72.21
2023-06-19T22:07:42.257Z,73.97
2023-06-19T22:10:44.813Z,73.20
2023-06-19T22:13:47.447Z,73.64
2023-06-19T22:16:49.955Z,73.61
2023-06-19T22:19:54.674Z,73.68
2023-06-19T22:23:01.786Z,74.88
2023-06-19T22:26:04.342Z,76.13
2023-06-19T22:29:07.560Z,77.21
2023-06-19T22:32:10.068Z,77.06
2023-06-19T22:35:14.635Z,76.71
2023-06-19T22:38:17.742Z,77.25
2023-06-19T22:41:20.435Z,75.59
2023-06-19T22:44:22.960Z,76.62
2023-06-19T22:47:25.576Z,76.32
2023-06-19T22:50:28.120Z,76.57
2023-06-19T22:53:32.847Z,77.01
2023-06-19T22:56:35.308Z,76.46
2023-06-19T22:59:40.112Z,76.43
2023-06-19T23:02:44.509Z,76.82
2023-06-19T23:05:47.052Z,77.18
2023-06-19T23:08:52.749Z,77.40
2023-06-19T23:11:57.364Z,74.92
2023-06-19T23:14:59.867Z,75.49
2023-06-19T23:18:08.052Z,75.97
2023-06-19T23:21:10.737Z,76.07
2023-06-19T23:24:13.309Z,74.45
2023-06-19T23:27:16.940Z,72.62
2023-06-19T23:30:21.511Z,74.84
2023-06-19T23:33:26.978Z,74.75
2023-06-19T23:37:44.596Z,75.93
2023-06-19T23:40:47.012Z,75.67
2023-06-19T23:43:49.874Z,76.18
2023-06-19T23:46:52.294Z,76.53
2023-06-19T23:49:54.698Z,77.60
2023-06-19T23:52:57.099Z,78.15
2023-06-19T23:55:59.872Z,79.42
2023-06-19T23:59:02.253Z,79.92
